sensor_id;sensor_type;location;lat;lon;timestamp;pressure;altitude;pressure_sealevel;temperature;humidity
49651;BME280;35547;55.676;37.492;2022-09-09T00:01:04;99825.59;;;12.32;50.70
49651;BME280;35547;55.676;37.492;2022-09-09T00:02:19;99813.63;;;12.60;50.17
49651;BME280;35547;55.676;37.492;2022-09-09T00:03:26;99819.44;;;12.34;50.65
49651;BME280;35547;55.676;37.492;2022-09-09T00:04:28;99823.81;;;12.34;50.60
49651;BME280;35547;55.676;37.492;2022-09-09T00:05:37;99828.19;;;12.33;50.46
49651;BME280;35547;55.676;37.492;2022-09-09T00:07:58;99828.19;;;12.33;50.42
49651;BME280;35547;55.676;37.492;2022-09-09T00:09:16;99787.09;;;11.96;50.76
49651;BME280;35547;55.676;37.492;2022-09-09T00:12:22;99824.41;;;12.04;51.25
49651;BME280;35547;55.676;37.492;2022-09-09T00:13:56;99793.72;;;12.13;50.88
49651;BME280;35547;55.676;37.492;2022-09-09T00:15:07;99827.38;;;12.31;50.97
49651;BME280;35547;55.676;37.492;2022-09-09T00:16:18;99828.66;;;12.12;51.63
49651;BME280;35547;55.676;37.492;2022-09-09T00:18:15;99829.78;;;12.40;51.00
49651;BME280;35547;55.676;37.492;2022-09-09T00:19:42;99827.25;;;12.37;51.07
49651;BME280;35547;55.676;37.492;2022-09-09T00:21:03;99823.78;;;12.35;50.72
49651;BME280;35547;55.676;37.492;2022-09-09T00:23:24;99838.03;;;12.22;51.18
49651;BME280;35547;55.676;37.492;2022-09-09T00:24:32;99849.41;;;12.19;51.40
49651;BME280;35547;55.676;37.492;2022-09-09T00:25:55;99834.50;;;12.24;51.84
49651;BME280;35547;55.676;37.492;2022-09-09T00:27:30;99844.72;;;12.35;51.63
49651;BME280;35547;55.676;37.492;2022-09-09T00:28:39;99833.97;;;12.07;51.80
49651;BME280;35547;55.676;37.492;2022-09-09T00:30:55;99831.47;;;12.02;52.16
49651;BME280;35547;55.676;37.492;2022-09-09T00:32:00;99839.00;;;12.18;51.51
49651;BME280;35547;55.676;37.492;2022-09-09T00:33:12;99838.16;;;12.16;51.30
49651;BME280;35547;55.676;37.492;2022-09-09T00:34:20;99842.13;;;12.35;51.27
49651;BME280;35547;55.676;37.492;2022-09-09T00:35:25;99835.03;;;12.39;51.28
49651;BME280;35547;55.676;37.492;2022-09-09T00:36:29;99833.41;;;12.35;51.35
49651;BME280;35547;55.676;37.492;2022-09-09T00:37:34;99824.53;;;12.40;51.08
49651;BME280;35547;55.676;37.492;2022-09-09T00:39:20;99828.59;;;12.54;50.96
49651;BME280;35547;55.676;37.492;2022-09-09T00:40:01;99835.22;;;12.70;50.77
49651;BME280;35547;55.676;37.492;2022-09-09T00:41:38;99836.66;;;12.83;50.60
49651;BME280;35547;55.676;37.492;2022-09-09T00:42:43;99850.88;;;12.73;50.55
49651;BME280;35547;55.676;37.492;2022-09-09T00:43:57;99842.03;;;12.77;50.66
49651;BME280;35547;55.676;37.492;2022-09-09T00:46:45;99847.22;;;12.41;51.47
49651;BME280;35547;55.676;37.492;2022-09-09T00:47:52;99831.25;;;12.13;51.80
49651;BME280;35547;55.676;37.492;2022-09-09T00:50:43;99849.03;;;12.38;51.98
49651;BME280;35547;55.676;37.492;2022-09-09T00:53:10;99847.16;;;12.43;52.17
49651;BME280;35547;55.676;37.492;2022-09-09T00:54:26;99851.13;;;12.22;52.20
49651;BME280;35547;55.676;37.492;2022-09-09T00:55:45;99845.66;;;12.33;52.35
49651;BME280;35547;55.676;37.492;2022-09-09T00:58:14;99849.03;;;12.38;51.94
49651;BME280;35547;55.676;37.492;2022-09-09T01:00:26;99858.47;;;12.85;51.26
49651;BME280;35547;55.676;37.492;2022-09-09T01:01:10;99860.84;;;12.57;51.48
49651;BME280;35547;55.676;37.492;2022-09-09T01:02:35;99850.63;;;12.45;51.87
49651;BME280;35547;55.676;37.492;2022-09-09T01:04:45;99849.50;;;12.57;51.89
49651;BME280;35547;55.676;37.492;2022-09-09T01:07:18;99863.84;;;12.39;52.07
49651;BME280;35547;55.676;37.492;2022-09-09T01:12:45;99858.47;;;12.03;53.09
49651;BME280;35547;55.676;37.492;2022-09-09T01:13:52;99867.81;;;12.15;52.93
49651;BME280;35547;55.676;37.492;2022-09-09T01:15:02;99864.47;;;12.08;53.10
49651;BME280;35547;55.676;37.492;2022-09-09T01:16:06;99854.94;;;12.04;52.87
49651;BME280;35547;55.676;37.492;2022-09-09T01:17:31;99866.78;;;12.23;52.92
49651;BME280;35547;55.676;37.492;2022-09-09T01:18:36;99852.84;;;12.21;52.32
49651;BME280;35547;55.676;37.492;2022-09-09T01:19:41;99875.41;;;12.28;52.29
49651;BME280;35547;55.676;37.492;2022-09-09T01:24:02;99878.38;;;12.54;52.08
49651;BME280;35547;55.676;37.492;2022-09-09T01:26:32;99872.09;;;12.19;52.34
49651;BME280;35547;55.676;37.492;2022-09-09T01:27:35;99880.81;;;12.19;52.52
49651;BME280;35547;55.676;37.492;2022-09-09T01:28:38;99881.84;;;12.11;52.57
49651;BME280;35547;55.676;37.492;2022-09-09T01:29:40;99875.69;;;12.15;52.68
49651;BME280;35547;55.676;37.492;2022-09-09T01:30:42;99870.16;;;11.83;53.65
49651;BME280;35547;55.676;37.492;2022-09-09T01:31:53;99882.47;;;12.23;53.02
49651;BME280;35547;55.676;37.492;2022-09-09T01:32:56;99875.72;;;12.13;53.32
49651;BME280;35547;55.676;37.492;2022-09-09T01:33:59;99879.34;;;12.04;53.60
49651;BME280;35547;55.676;37.492;2022-09-09T01:34:59;99882.22;;;11.92;53.70
49651;BME280;35547;55.676;37.492;2022-09-09T01:37:20;99878.97;;;12.24;52.70
49651;BME280;35547;55.676;37.492;2022-09-09T01:38:22;99871.38;;;12.11;53.15
49651;BME280;35547;55.676;37.492;2022-09-09T01:39:24;99879.16;;;12.15;53.00
49651;BME280;35547;55.676;37.492;2022-09-09T01:40:26;99887.78;;;12.20;52.91
49651;BME280;35547;55.676;37.492;2022-09-09T01:41:27;99888.41;;;12.33;52.71
49651;BME280;35547;55.676;37.492;2022-09-09T01:42:27;99872.41;;;12.03;53.26
49651;BME280;35547;55.676;37.492;2022-09-09T01:43:28;99886.50;;;11.96;53.65
49651;BME280;35547;55.676;37.492;2022-09-09T01:44:29;99895.06;;;12.04;53.20
49651;BME280;35547;55.676;37.492;2022-09-09T01:45:30;99878.09;;;11.79;54.36
49651;BME280;35547;55.676;37.492;2022-09-09T01:46:31;99893.41;;;12.00;53.98
49651;BME280;35547;55.676;37.492;2022-09-09T01:47:32;99858.22;;;11.68;53.78
49651;BME280;35547;55.676;37.492;2022-09-09T01:48:33;99896.31;;;11.82;54.49
49651;BME280;35547;55.676;37.492;2022-09-09T01:49:34;99890.94;;;11.93;54.58
49651;BME280;35547;55.676;37.492;2022-09-09T01:50:35;99894.28;;;11.99;54.12
49651;BME280;35547;55.676;37.492;2022-09-09T01:51:36;99891.88;;;11.88;54.42
49651;BME280;35547;55.676;37.492;2022-09-09T01:52:38;99885.19;;;11.71;54.66
49651;BME280;35547;55.676;37.492;2022-09-09T01:53:40;99897.94;;;11.92;54.13
49651;BME280;35547;55.676;37.492;2022-09-09T01:54:41;99897.81;;;11.98;54.33
49651;BME280;35547;55.676;37.492;2022-09-09T01:55:46;99900.34;;;12.03;54.12
49651;BME280;35547;55.676;37.492;2022-09-09T01:57:15;99894.81;;;12.18;53.80
49651;BME280;35547;55.676;37.492;2022-09-09T02:00:13;99900.03;;;12.20;53.46
49651;BME280;35547;55.676;37.492;2022-09-09T02:03:13;99905.09;;;12.26;53.16
49651;BME280;35547;55.676;37.492;2022-09-09T02:04:43;99902.31;;;11.92;55.00
49651;BME280;35547;55.676;37.492;2022-09-09T02:05:52;99898.19;;;11.75;54.70
49651;BME280;35547;55.676;37.492;2022-09-09T02:06:56;99905.13;;;11.78;54.59
49651;BME280;35547;55.676;37.492;2022-09-09T02:08:08;99902.97;;;12.03;53.92
49651;BME280;35547;55.676;37.492;2022-09-09T02:09:11;99909.31;;;11.90;54.31
49651;BME280;35547;55.676;37.492;2022-09-09T02:10:29;99899.34;;;11.59;55.25
49651;BME280;35547;55.676;37.492;2022-09-09T02:11:32;99903.50;;;11.18;56.18
49651;BME280;35547;55.676;37.492;2022-09-09T02:12:34;99909.44;;;11.27;56.53
49651;BME280;35547;55.676;37.492;2022-09-09T02:13:37;99913.59;;;11.41;55.92
49651;BME280;35547;55.676;37.492;2022-09-09T02:14:50;99913.41;;;11.52;55.75
49651;BME280;35547;55.676;37.492;2022-09-09T02:15:59;99898.75;;;11.43;55.50
49651;BME280;35547;55.676;37.492;2022-09-09T02:17:13;99904.28;;;11.74;55.13
49651;BME280;35547;55.676;37.492;2022-09-09T02:18:26;99910.09;;;11.93;54.44
49651;BME280;35547;55.676;37.492;2022-09-09T02:19:31;99911.94;;;11.88;54.24
49651;BME280;35547;55.676;37.492;2022-09-09T02:20:32;99907.47;;;11.95;53.97
49651;BME280;35547;55.676;37.492;2022-09-09T02:21:33;99911.78;;;11.96;54.39
49651;BME280;35547;55.676;37.492;2022-09-09T02:22:39;99903.03;;;11.98;54.17
49651;BME280;35547;55.676;37.492;2022-09-09T02:23:42;99913.47;;;12.00;54.07
49651;BME280;35547;55.676;37.492;2022-09-09T02:24:44;99916.03;;;12.03;54.31
49651;BME280;35547;55.676;37.492;2022-09-09T02:25:46;99920.25;;;12.12;53.96
49651;BME280;35547;55.676;37.492;2022-09-09T02:26:51;99920.00;;;12.24;53.86
49651;BME280;35547;55.676;37.492;2022-09-09T02:27:53;99917.19;;;11.88;54.68
49651;BME280;35547;55.676;37.492;2022-09-09T02:28:55;99921.50;;;11.89;54.62
49651;BME280;35547;55.676;37.492;2022-09-09T02:29:58;99916.44;;;11.78;55.03
49651;BME280;35547;55.676;37.492;2022-09-09T02:31:02;99919.16;;;11.72;54.76
49651;BME280;35547;55.676;37.492;2022-09-09T02:32:06;99920.97;;;11.68;55.03
49651;BME280;35547;55.676;37.492;2022-09-09T02:33:10;99928.75;;;11.73;55.28
49651;BME280;35547;55.676;37.492;2022-09-09T02:34:13;99916.06;;;11.48;55.03
49651;BME280;35547;55.676;37.492;2022-09-09T02:35:19;99929.44;;;11.83;54.78
49651;BME280;35547;55.676;37.492;2022-09-09T02:36:23;99919.72;;;11.91;54.50
49651;BME280;35547;55.676;37.492;2022-09-09T02:37:33;99925.69;;;11.99;54.39
49651;BME280;35547;55.676;37.492;2022-09-09T02:38:40;99908.31;;;11.95;54.51
49651;BME280;35547;55.676;37.492;2022-09-09T02:39:43;99933.66;;;11.93;54.47
49651;BME280;35547;55.676;37.492;2022-09-09T02:40:43;99929.97;;;12.05;54.37
49651;BME280;35547;55.676;37.492;2022-09-09T02:41:44;99925.41;;;12.15;54.24
49651;BME280;35547;55.676;37.492;2022-09-09T02:42:46;99925.28;;;12.21;54.10
49651;BME280;35547;55.676;37.492;2022-09-09T02:43:47;99923.31;;;12.32;53.46
49651;BME280;35547;55.676;37.492;2022-09-09T02:44:47;99908.78;;;12.17;53.31
49651;BME280;35547;55.676;37.492;2022-09-09T02:45:56;99924.25;;;12.29;53.52
49651;BME280;35547;55.676;37.492;2022-09-09T02:51:13;99930.19;;;11.93;54.49
49651;BME280;35547;55.676;37.492;2022-09-09T02:52:20;99936.31;;;11.92;54.24
49651;BME280;35547;55.676;37.492;2022-09-09T02:56:25;99940.22;;;11.64;55.05
49651;BME280;35547;55.676;37.492;2022-09-09T02:57:30;99946.94;;;11.79;54.54
49651;BME280;35547;55.676;37.492;2022-09-09T02:58:32;99937.50;;;11.71;54.71
49651;BME280;35547;55.676;37.492;2022-09-09T02:59:33;99944.94;;;11.42;55.42
49651;BME280;35547;55.676;37.492;2022-09-09T03:00:34;99952.66;;;11.50;55.21
49651;BME280;35547;55.676;37.492;2022-09-09T03:01:36;99952.28;;;11.72;54.97
49651;BME280;35547;55.676;37.492;2022-09-09T03:02:37;99933.19;;;11.68;54.67
49651;BME280;35547;55.676;37.492;2022-09-09T03:03:38;99955.72;;;11.77;54.71
49651;BME280;35547;55.676;37.492;2022-09-09T03:04:40;99957.69;;;11.64;55.04
49651;BME280;35547;55.676;37.492;2022-09-09T03:05:42;99944.09;;;11.95;54.57
49651;BME280;35547;55.676;37.492;2022-09-09T03:06:42;99930.22;;;11.37;54.90
49651;BME280;35547;55.676;37.492;2022-09-09T03:07:43;99950.19;;;11.41;55.54
49651;BME280;35547;55.676;37.492;2022-09-09T03:08:43;99936.97;;;11.48;55.22
49651;BME280;35547;55.676;37.492;2022-09-09T03:09:44;99938.47;;;11.63;55.20
49651;BME280;35547;55.676;37.492;2022-09-09T03:10:45;99917.06;;;11.41;54.71
49651;BME280;35547;55.676;37.492;2022-09-09T03:11:45;99950.53;;;11.72;54.98
49651;BME280;35547;55.676;37.492;2022-09-09T03:12:46;99947.31;;;11.56;54.92
49651;BME280;35547;55.676;37.492;2022-09-09T03:13:46;99952.38;;;11.67;54.97
49651;BME280;35547;55.676;37.492;2022-09-09T03:14:49;99957.25;;;11.34;55.28
49651;BME280;35547;55.676;37.492;2022-09-09T03:15:50;99956.94;;;11.56;54.95
49651;BME280;35547;55.676;37.492;2022-09-09T03:16:52;99962.75;;;11.72;55.07
49651;BME280;35547;55.676;37.492;2022-09-09T03:17:52;99947.56;;;11.41;55.24
49651;BME280;35547;55.676;37.492;2022-09-09T03:18:53;99961.56;;;11.37;55.91
49651;BME280;35547;55.676;37.492;2022-09-09T03:19:53;99885.38;;;11.07;54.93
49651;BME280;35547;55.676;37.492;2022-09-09T03:20:55;99959.69;;;11.46;55.28
49651;BME280;35547;55.676;37.492;2022-09-09T03:21:55;99959.03;;;11.32;55.69
49651;BME280;35547;55.676;37.492;2022-09-09T03:22:56;99956.34;;;11.38;55.54
49651;BME280;35547;55.676;37.492;2022-09-09T03:23:57;99961.69;;;11.29;55.85
49651;BME280;35547;55.676;37.492;2022-09-09T03:24:58;99958.97;;;11.35;55.91
49651;BME280;35547;55.676;37.492;2022-09-09T03:25:58;99956.59;;;11.21;55.92
49651;BME280;35547;55.676;37.492;2022-09-09T03:26:59;99953.84;;;11.29;56.50
49651;BME280;35547;55.676;37.492;2022-09-09T03:27:59;99959.91;;;11.33;56.01
49651;BME280;35547;55.676;37.492;2022-09-09T03:29:00;99952.06;;;11.31;55.82
49651;BME280;35547;55.676;37.492;2022-09-09T03:30:01;99953.81;;;11.31;56.20
49651;BME280;35547;55.676;37.492;2022-09-09T03:31:05;99960.22;;;11.11;56.72
49651;BME280;35547;55.676;37.492;2022-09-09T03:32:05;99962.31;;;11.45;55.95
49651;BME280;35547;55.676;37.492;2022-09-09T03:33:06;99962.19;;;11.53;55.64
49651;BME280;35547;55.676;37.492;2022-09-09T03:34:06;99957.19;;;11.37;55.03
49651;BME280;35547;55.676;37.492;2022-09-09T03:35:07;99964.25;;;11.32;55.82
49651;BME280;35547;55.676;37.492;2022-09-09T03:36:08;99967.66;;;11.37;55.99
49651;BME280;35547;55.676;37.492;2022-09-09T03:37:09;99966.56;;;11.54;55.56
49651;BME280;35547;55.676;37.492;2022-09-09T03:38:10;99963.41;;;11.32;55.60
49651;BME280;35547;55.676;37.492;2022-09-09T03:39:10;99964.28;;;11.29;56.00
49651;BME280;35547;55.676;37.492;2022-09-09T03:40:11;99970.19;;;11.42;55.80
49651;BME280;35547;55.676;37.492;2022-09-09T03:41:12;99975.75;;;11.20;56.56
49651;BME280;35547;55.676;37.492;2022-09-09T03:42:13;99977.56;;;11.15;56.70
49651;BME280;35547;55.676;37.492;2022-09-09T03:43:19;99963.50;;;11.24;56.30
49651;BME280;35547;55.676;37.492;2022-09-09T03:44:21;99967.47;;;11.50;56.17
49651;BME280;35547;55.676;37.492;2022-09-09T03:45:21;99974.53;;;11.44;55.38
49651;BME280;35547;55.676;37.492;2022-09-09T03:46:24;99980.19;;;11.17;56.67
49651;BME280;35547;55.676;37.492;2022-09-09T03:47:25;99973.81;;;11.33;56.49
49651;BME280;35547;55.676;37.492;2022-09-09T03:48:26;99964.22;;;11.35;55.74
49651;BME280;35547;55.676;37.492;2022-09-09T03:49:28;99965.09;;;11.34;55.77
49651;BME280;35547;55.676;37.492;2022-09-09T03:50:28;99959.06;;;11.29;55.71
49651;BME280;35547;55.676;37.492;2022-09-09T03:51:29;99977.16;;;11.43;55.93
49651;BME280;35547;55.676;37.492;2022-09-09T03:52:30;99984.19;;;11.38;55.41
49651;BME280;35547;55.676;37.492;2022-09-09T03:53:31;99987.56;;;11.46;55.73
49651;BME280;35547;55.676;37.492;2022-09-09T03:54:32;99994.31;;;11.00;56.70
49651;BME280;35547;55.676;37.492;2022-09-09T03:55:32;99973.44;;;10.99;57.09
49651;BME280;35547;55.676;37.492;2022-09-09T03:56:33;99978.34;;;11.20;56.24
49651;BME280;35547;55.676;37.492;2022-09-09T03:57:34;99933.69;;;10.78;56.67
49651;BME280;35547;55.676;37.492;2022-09-09T03:58:37;99983.00;;;11.00;57.06
49651;BME280;35547;55.676;37.492;2022-09-09T03:59:37;99997.56;;;11.19;56.45
49651;BME280;35547;55.676;37.492;2022-09-09T04:00:38;99984.34;;;11.30;56.12
49651;BME280;35547;55.676;37.492;2022-09-09T04:01:42;99993.94;;;11.28;56.36
49651;BME280;35547;55.676;37.492;2022-09-09T04:02:43;99973.75;;;11.38;55.88
49651;BME280;35547;55.676;37.492;2022-09-09T04:03:44;99994.78;;;11.28;56.24
49651;BME280;35547;55.676;37.492;2022-09-09T04:04:47;99986.13;;;11.26;56.19
49651;BME280;35547;55.676;37.492;2022-09-09T04:05:51;99992.94;;;11.37;56.15
49651;BME280;35547;55.676;37.492;2022-09-09T04:06:53;99983.50;;;11.28;55.87
49651;BME280;35547;55.676;37.492;2022-09-09T04:07:54;99986.13;;;11.82;55.01
49651;BME280;35547;55.676;37.492;2022-09-09T04:08:54;99955.44;;;11.38;54.89
49651;BME280;35547;55.676;37.492;2022-09-09T04:09:55;99990.16;;;11.49;55.45
49651;BME280;35547;55.676;37.492;2022-09-09T04:10:56;99990.09;;;11.52;55.57
49651;BME280;35547;55.676;37.492;2022-09-09T04:11:57;99992.25;;;11.81;55.16
49651;BME280;35547;55.676;37.492;2022-09-09T04:12:58;99998.66;;;11.62;55.12
49651;BME280;35547;55.676;37.492;2022-09-09T04:13:59;99987.47;;;11.54;55.43
49651;BME280;35547;55.676;37.492;2022-09-09T04:15:00;99997.09;;;11.50;55.30
49651;BME280;35547;55.676;37.492;2022-09-09T04:16:03;99996.78;;;11.11;56.84
49651;BME280;35547;55.676;37.492;2022-09-09T04:17:04;99998.63;;;11.06;56.76
49651;BME280;35547;55.676;37.492;2022-09-09T04:18:06;99991.56;;;11.13;56.55
49651;BME280;35547;55.676;37.492;2022-09-09T04:19:07;100004.41;;;11.26;55.77
49651;BME280;35547;55.676;37.492;2022-09-09T04:20:07;100002.31;;;11.50;55.49
49651;BME280;35547;55.676;37.492;2022-09-09T04:21:11;99993.44;;;11.01;56.13
49651;BME280;35547;55.676;37.492;2022-09-09T04:22:12;99999.09;;;11.34;55.71
49651;BME280;35547;55.676;37.492;2022-09-09T04:23:13;99996.91;;;11.62;54.99
49651;BME280;35547;55.676;37.492;2022-09-09T04:24:14;99994.53;;;11.47;55.09
49651;BME280;35547;55.676;37.492;2022-09-09T04:25:16;99996.16;;;11.54;55.21
49651;BME280;35547;55.676;37.492;2022-09-09T04:26:17;99993.34;;;11.68;54.42
49651;BME280;35547;55.676;37.492;2022-09-09T04:27:18;100002.63;;;11.86;54.18
49651;BME280;35547;55.676;37.492;2022-09-09T04:28:20;100002.56;;;11.92;54.33
49651;BME280;35547;55.676;37.492;2022-09-09T04:29:21;99997.38;;;11.89;54.27
49651;BME280;35547;55.676;37.492;2022-09-09T04:30:23;100008.75;;;11.85;54.43
49651;BME280;35547;55.676;37.492;2022-09-09T04:31:23;100000.06;;;11.83;53.95
49651;BME280;35547;55.676;37.492;2022-09-09T04:32:24;99998.09;;;12.00;53.69
49651;BME280;35547;55.676;37.492;2022-09-09T04:33:27;99931.97;;;11.35;54.11
49651;BME280;35547;55.676;37.492;2022-09-09T04:34:28;99982.59;;;11.85;54.10
49651;BME280;35547;55.676;37.492;2022-09-09T04:35:30;99988.41;;;12.04;53.99
49651;BME280;35547;55.676;37.492;2022-09-09T04:36:32;99994.56;;;12.01;53.79
49651;BME280;35547;55.676;37.492;2022-09-09T04:37:32;99999.53;;;12.15;53.60
49651;BME280;35547;55.676;37.492;2022-09-09T04:38:33;99977.25;;;11.93;53.56
49651;BME280;35547;55.676;37.492;2022-09-09T04:39:33;99998.56;;;12.21;53.08
49651;BME280;35547;55.676;37.492;2022-09-09T04:40:35;99992.47;;;12.20;53.18
49651;BME280;35547;55.676;37.492;2022-09-09T04:41:35;100001.63;;;12.44;52.54
49651;BME280;35547;55.676;37.492;2022-09-09T04:42:36;99996.38;;;12.44;52.40
49651;BME280;35547;55.676;37.492;2022-09-09T04:43:40;99991.91;;;12.49;52.41
49651;BME280;35547;55.676;37.492;2022-09-09T04:44:40;100001.41;;;12.55;52.32
49651;BME280;35547;55.676;37.492;2022-09-09T04:45:42;100009.38;;;12.50;52.19
49651;BME280;35547;55.676;37.492;2022-09-09T04:46:43;99999.28;;;12.31;52.70
49651;BME280;35547;55.676;37.492;2022-09-09T04:47:43;100007.47;;;12.11;52.22
49651;BME280;35547;55.676;37.492;2022-09-09T04:48:44;100012.97;;;11.97;53.64
49651;BME280;35547;55.676;37.492;2022-09-09T04:49:44;99996.31;;;12.01;52.66
49651;BME280;35547;55.676;37.492;2022-09-09T04:50:57;100010.91;;;12.16;52.61
49651;BME280;35547;55.676;37.492;2022-09-09T04:51:58;100007.63;;;12.01;53.24
49651;BME280;35547;55.676;37.492;2022-09-09T04:53:05;100016.25;;;12.06;53.35
49651;BME280;35547;55.676;37.492;2022-09-09T04:54:05;100008.31;;;12.13;52.69
49651;BME280;35547;55.676;37.492;2022-09-09T04:55:06;100012.59;;;12.18;52.96
49651;BME280;35547;55.676;37.492;2022-09-09T04:56:09;99997.41;;;12.37;52.46
49651;BME280;35547;55.676;37.492;2022-09-09T04:57:10;100003.38;;;12.45;52.15
49651;BME280;35547;55.676;37.492;2022-09-09T04:58:11;99949.31;;;11.95;52.01
49651;BME280;35547;55.676;37.492;2022-09-09T04:59:11;100011.13;;;12.50;52.20
49651;BME280;35547;55.676;37.492;2022-09-09T05:00:12;100015.34;;;12.57;52.02
49651;BME280;35547;55.676;37.492;2022-09-09T05:01:15;100009.41;;;12.49;52.23
49651;BME280;35547;55.676;37.492;2022-09-09T05:02:17;100019.63;;;12.63;52.17
49651;BME280;35547;55.676;37.492;2022-09-09T05:03:18;100021.09;;;12.76;51.79
49651;BME280;35547;55.676;37.492;2022-09-09T05:04:19;100020.16;;;12.80;51.61
49651;BME280;35547;55.676;37.492;2022-09-09T05:05:20;100007.97;;;12.78;51.61
49651;BME280;35547;55.676;37.492;2022-09-09T05:06:22;100006.88;;;12.88;51.17
49651;BME280;35547;55.676;37.492;2022-09-09T05:07:22;100019.03;;;12.90;51.10
49651;BME280;35547;55.676;37.492;2022-09-09T05:08:23;100017.00;;;12.63;51.46
49651;BME280;35547;55.676;37.492;2022-09-09T05:09:23;100017.94;;;12.59;51.70
49651;BME280;35547;55.676;37.492;2022-09-09T05:10:24;100015.97;;;12.72;51.05
49651;BME280;35547;55.676;37.492;2022-09-09T05:11:27;100025.47;;;12.76;51.35
49651;BME280;35547;55.676;37.492;2022-09-09T05:12:27;100011.16;;;12.92;50.74
49651;BME280;35547;55.676;37.492;2022-09-09T05:13:28;100019.63;;;13.05;50.61
49651;BME280;35547;55.676;37.492;2022-09-09T05:14:29;100021.72;;;12.87;50.51
49651;BME280;35547;55.676;37.492;2022-09-09T05:15:30;99962.22;;;12.50;50.67
49651;BME280;35547;55.676;37.492;2022-09-09T05:16:31;100031.78;;;12.65;51.20
49651;BME280;35547;55.676;37.492;2022-09-09T05:17:32;100036.91;;;12.72;51.09
49651;BME280;35547;55.676;37.492;2022-09-09T05:18:34;100026.78;;;12.97;50.60
49651;BME280;35547;55.676;37.492;2022-09-09T05:19:34;100022.59;;;12.88;50.48
49651;BME280;35547;55.676;37.492;2022-09-09T05:20:35;100033.66;;;13.02;50.60
49651;BME280;35547;55.676;37.492;2022-09-09T05:21:35;100035.97;;;13.16;50.10
49651;BME280;35547;55.676;37.492;2022-09-09T05:22:36;100033.53;;;13.08;49.89
49651;BME280;35547;55.676;37.492;2022-09-09T05:23:37;100042.88;;;13.20;49.56
49651;BME280;35547;55.676;37.492;2022-09-09T05:24:38;100027.88;;;13.27;49.41
49651;BME280;35547;55.676;37.492;2022-09-09T05:25:39;100025.00;;;13.41;49.33
49651;BME280;35547;55.676;37.492;2022-09-09T05:26:40;100038.91;;;13.82;48.19
49651;BME280;35547;55.676;37.492;2022-09-09T05:27:41;100038.50;;;13.61;48.84
49651;BME280;35547;55.676;37.492;2022-09-09T05:28:41;100021.22;;;13.52;48.91
49651;BME280;35547;55.676;37.492;2022-09-09T05:29:42;100034.06;;;13.65;48.83
49651;BME280;35547;55.676;37.492;2022-09-09T05:30:44;100045.50;;;13.62;48.78
49651;BME280;35547;55.676;37.492;2022-09-09T05:31:45;100033.38;;;13.57;48.54
49651;BME280;35547;55.676;37.492;2022-09-09T05:32:47;100028.78;;;13.66;48.68
49651;BME280;35547;55.676;37.492;2022-09-09T05:33:48;100020.81;;;13.34;49.14
49651;BME280;35547;55.676;37.492;2022-09-09T05:34:52;100039.31;;;13.24;48.59
49651;BME280;35547;55.676;37.492;2022-09-09T05:36:03;100027.66;;;13.38;48.65
49651;BME280;35547;55.676;37.492;2022-09-09T05:37:04;100031.69;;;13.54;48.50
49651;BME280;35547;55.676;37.492;2022-09-09T05:38:05;100030.94;;;13.07;48.52
49651;BME280;35547;55.676;37.492;2022-09-09T05:39:05;100031.28;;;12.90;49.46
49651;BME280;35547;55.676;37.492;2022-09-09T05:40:06;100020.44;;;13.08;49.43
49651;BME280;35547;55.676;37.492;2022-09-09T05:41:08;100027.66;;;13.38;49.11
49651;BME280;35547;55.676;37.492;2022-09-09T05:42:09;100030.50;;;13.67;48.26
49651;BME280;35547;55.676;37.492;2022-09-09T05:43:10;100024.41;;;13.65;48.11
49651;BME280;35547;55.676;37.492;2022-09-09T05:44:11;100004.38;;;13.63;48.23
49651;BME280;35547;55.676;37.492;2022-09-09T05:45:11;100038.44;;;13.66;47.62
49651;BME280;35547;55.676;37.492;2022-09-09T05:46:20;100043.56;;;13.31;48.05
49651;BME280;35547;55.676;37.492;2022-09-09T05:47:21;100021.06;;;13.20;48.00
49651;BME280;35547;55.676;37.492;2022-09-09T05:48:22;100032.97;;;13.36;48.25
49651;BME280;35547;55.676;37.492;2022-09-09T05:49:22;100032.28;;;13.65;47.84
49651;BME280;35547;55.676;37.492;2022-09-09T05:50:23;100035.53;;;13.77;47.39
49651;BME280;35547;55.676;37.492;2022-09-09T05:51:25;100043.84;;;13.57;47.42
49651;BME280;35547;55.676;37.492;2022-09-09T05:52:26;100022.69;;;13.66;46.84
49651;BME280;35547;55.676;37.492;2022-09-09T05:53:28;100040.41;;;13.55;47.20
49651;BME280;35547;55.676;37.492;2022-09-09T05:54:32;100040.34;;;13.58;47.65
49651;BME280;35547;55.676;37.492;2022-09-09T05:55:32;100035.69;;;13.70;46.90
49651;BME280;35547;55.676;37.492;2022-09-09T05:56:33;100037.72;;;13.93;46.54
49651;BME280;35547;55.676;37.492;2022-09-09T05:57:34;100031.91;;;13.81;47.24
49651;BME280;35547;55.676;37.492;2022-09-09T05:58:34;100040.59;;;13.84;47.22
49651;BME280;35547;55.676;37.492;2022-09-09T05:59:35;100045.72;;;13.53;47.12
49651;BME280;35547;55.676;37.492;2022-09-09T06:00:35;100044.28;;;13.76;47.11
49651;BME280;35547;55.676;37.492;2022-09-09T06:01:37;100049.78;;;13.24;47.07
49651;BME280;35547;55.676;37.492;2022-09-09T06:02:40;100046.75;;;13.02;47.80
49651;BME280;35547;55.676;37.492;2022-09-09T06:03:43;100050.16;;;12.62;49.23
49651;BME280;35547;55.676;37.492;2022-09-09T06:04:44;100039.72;;;13.04;48.47
49651;BME280;35547;55.676;37.492;2022-09-09T06:05:44;100045.28;;;13.32;47.98
49651;BME280;35547;55.676;37.492;2022-09-09T06:06:45;100032.28;;;13.65;47.00
49651;BME280;35547;55.676;37.492;2022-09-09T06:07:45;100036.28;;;13.82;46.49
49651;BME280;35547;55.676;37.492;2022-09-09T06:08:46;100034.88;;;13.29;46.98
49651;BME280;35547;55.676;37.492;2022-09-09T06:09:47;100046.13;;;13.35;47.81